createdAt,value
2023-02-11T00:00:06.190Z,74.74
2023-02-11T00:02:37.995Z,74.71
2023-02-11T00:05:10.627Z,74.43
2023-02-11T00:07:42.642Z,74.17
2023-02-11T00:10:14.600Z,74.08
2023-02-11T00:12:46.430Z,74.48
2023-02-11T00:15:18.213Z,74.80
2023-02-11T00:17:49.827Z,74.48
2023-02-11T00:20:21.707Z,74.36
2023-02-11T00:22:53.476Z,74.33
2023-02-11T00:25:25.228Z,74.41
2023-02-11T00:27:57.103Z,74.51
2023-02-11T00:30:29.032Z,74.65
2023-02-11T00:33:00.721Z,74.62
2023-02-11T00:35:32.368Z,74.80
2023-02-11T00:38:04.174Z,74.77
2023-02-11T00:40:35.902Z,74.45
2023-02-11T00:43:07.650Z,73.55
2023-02-11T00:45:39.222Z,73.28
2023-02-11T00:48:10.887Z,73.45
2023-02-11T00:50:42.586Z,73.99
2023-02-11T00:53:14.497Z,74.19
2023-02-11T00:55:46.246Z,74.47
2023-02-11T00:58:18.233Z,74.46
2023-02-11T01:00:50.459Z,74.08
2023-02-11T01:03:22.202Z,74.07
2023-02-11T01:05:54.049Z,74.00
2023-02-11T01:08:26.049Z,73.63
2023-02-11T01:11:03.091Z,73.21
2023-02-11T01:13:37.514Z,73.28
2023-02-11T01:16:11.827Z,73.25
2023-02-11T01:18:44.925Z,72.97
2023-02-11T01:21:17.071Z,73.33
2023-02-11T01:23:48.864Z,73.71
2023-02-11T01:26:20.627Z,73.79
2023-02-11T01:28:52.537Z,73.93
2023-02-11T01:31:24.268Z,73.95
2023-02-11T01:33:56.080Z,73.77
2023-02-11T01:36:27.685Z,73.88
2023-02-11T01:38:59.322Z,73.82
2023-02-11T01:41:30.948Z,73.83
2023-02-11T01:44:15.819Z,73.86
2023-02-11T01:46:47.679Z,73.87
2023-02-11T01:49:27.233Z,73.72
2023-02-11T01:52:03.793Z,73.30
2023-02-11T01:54:58.155Z,73.25
2023-02-11T01:57:35.087Z,73.66
2023-02-11T02:00:15.252Z,73.92
2023-02-11T02:02:58.918Z,74.15
2023-02-11T02:05:36.910Z,73.81
2023-02-11T02:08:16.498Z,73.71
2023-02-11T02:10:53.594Z,73.97
2023-02-11T02:13:26.073Z,74.24
2023-02-11T02:15:59.934Z,73.87
2023-02-11T02:18:45.471Z,73.71
2023-02-11T02:21:54.274Z,73.49
2023-02-11T02:24:51.668Z,72.70
2023-02-11T02:27:39.503Z,72.64
2023-02-11T02:30:49.368Z,72.48
2023-02-11T02:33:40.195Z,72.14
2023-02-11T02:36:21.430Z,72.04
2023-02-11T02:38:59.743Z,71.99
2023-02-11T02:41:35.064Z,71.95
2023-02-11T02:44:07.744Z,71.92
2023-02-11T02:46:40.098Z,72.15
2023-02-11T02:49:15.551Z,71.77
2023-02-11T02:52:14.275Z,72.10
2023-02-11T02:55:09.434Z,72.03
2023-02-11T02:57:54.274Z,71.87
2023-02-11T03:00:35.271Z,71.80
2023-02-11T03:03:19.501Z,71.63
2023-02-11T03:05:59.991Z,71.83
2023-02-11T03:08:40.121Z,71.80
2023-02-11T03:11:13.672Z,71.74
2023-02-11T03:13:48.038Z,71.74
2023-02-11T03:16:24.277Z,71.67
2023-02-11T03:19:02.030Z,71.76
2023-02-11T03:21:38.095Z,71.68
2023-02-11T03:24:14.881Z,71.57
2023-02-11T03:26:51.590Z,71.63
2023-02-11T03:29:32.794Z,71.40
2023-02-11T03:32:12.731Z,71.22
2023-02-11T03:34:49.536Z,71.33
2023-02-11T03:37:27.639Z,71.06
2023-02-11T03:40:04.979Z,71.21
2023-02-11T03:42:43.183Z,71.26
2023-02-11T03:45:18.765Z,71.24
2023-02-11T03:47:54.915Z,71.28
2023-02-11T03:50:28.090Z,71.06
2023-02-11T03:53:02.241Z,70.91
2023-02-11T03:55:38.591Z,70.94
2023-02-11T03:58:10.401Z,71.21
2023-02-11T04:00:44.212Z,71.03
2023-02-11T04:03:16.525Z,71.19
2023-02-11T04:05:48.562Z,70.98
2023-02-11T04:08:20.809Z,71.02
2023-02-11T04:10:52.421Z,71.10
2023-02-11T04:13:24.052Z,70.94
2023-02-11T04:15:55.816Z,70.79
2023-02-11T04:18:27.408Z,70.99
2023-02-11T04:20:59.095Z,71.07
2023-02-11T04:23:30.680Z,71.14
2023-02-11T04:26:02.490Z,71.13
2023-02-11T04:28:35.298Z,70.94
2023-02-11T04:31:07.176Z,71.19
2023-02-11T04:33:39.105Z,70.73
2023-02-11T04:36:18.565Z,70.77
2023-02-11T04:38:55.493Z,70.92
2023-02-11T04:41:34.560Z,70.82
2023-02-11T04:44:06.681Z,70.59
2023-02-11T04:46:38.394Z,70.68
2023-02-11T04:49:10.137Z,70.86
2023-02-11T04:51:41.722Z,70.61
2023-02-11T04:54:13.428Z,70.71
2023-02-11T04:56:45.063Z,70.63
2023-02-11T04:59:16.672Z,70.89
2023-02-11T05:01:48.327Z,71.14
2023-02-11T05:04:20.214Z,71.02
2023-02-11T05:06:52.230Z,70.56
2023-02-11T05:09:23.873Z,70.55
2023-02-11T05:11:55.497Z,70.36
2023-02-11T05:14:27.179Z,70.47
2023-02-11T05:16:58.880Z,70.53
2023-02-11T05:19:31.566Z,70.68
2023-02-11T05:22:03.891Z,70.31
2023-02-11T05:24:36.458Z,70.01
2023-02-11T05:27:08.206Z,69.90
2023-02-11T05:29:40.344Z,70.09
2023-02-11T05:32:12.667Z,70.29
2023-02-11T05:34:44.336Z,70.20
2023-02-11T05:37:16.124Z,70.14
2023-02-11T05:39:48.036Z,70.40
2023-02-11T05:42:19.799Z,70.24
2023-02-11T05:44:51.546Z,70.30
2023-02-11T05:47:23.194Z,70.38
2023-02-11T05:49:55.120Z,70.47
2023-02-11T05:52:27.126Z,70.47
2023-02-11T05:54:58.935Z,70.38
2023-02-11T05:57:30.677Z,70.31
2023-02-11T06:00:02.447Z,69.87
2023-02-11T06:02:34.141Z,69.61
2023-02-11T06:05:05.958Z,69.73
2023-02-11T06:07:37.535Z,69.92
2023-02-11T06:10:10.993Z,70.03
2023-02-11T06:12:42.679Z,69.86
2023-02-11T06:15:14.679Z,69.74
2023-02-11T06:17:46.439Z,69.71
2023-02-11T06:20:18.427Z,69.86
2023-02-11T06:22:50.142Z,70.30
2023-02-11T06:25:22.041Z,70.40
2023-02-11T06:27:53.795Z,70.34
2023-02-11T06:30:25.524Z,70.48
2023-02-11T06:32:57.224Z,70.12
2023-02-11T06:35:28.834Z,69.95
2023-02-11T06:38:00.468Z,70.07
2023-02-11T06:40:32.157Z,70.14
2023-02-11T06:43:03.972Z,70.29
2023-02-11T06:45:35.694Z,70.28
2023-02-11T06:48:07.655Z,70.11
2023-02-11T06:50:39.916Z,70.31
2023-02-11T06:53:11.642Z,70.31
2023-02-11T06:55:43.447Z,70.28
2023-02-11T06:58:15.434Z,70.39
2023-02-11T07:00:47.261Z,70.46
2023-02-11T07:03:19.008Z,70.66
2023-02-11T07:05:50.948Z,70.34
2023-02-11T07:08:22.799Z,69.85
2023-02-11T07:10:54.689Z,70.10
2023-02-11T07:13:26.254Z,70.37
2023-02-11T07:15:58.040Z,70.49
2023-02-11T07:18:29.727Z,70.22
2023-02-11T07:21:01.704Z,70.14
2023-02-11T07:23:33.737Z,70.06
2023-02-11T07:26:08.775Z,70.55
2023-02-11T07:28:41.651Z,70.46
2023-02-11T07:31:15.114Z,70.17
2023-02-11T07:33:47.542Z,70.21
2023-02-11T07:36:19.752Z,70.09
2023-02-11T07:38:51.840Z,70.21
2023-02-11T07:41:25.412Z,70.28
2023-02-11T07:43:57.449Z,70.09
2023-02-11T07:46:30.412Z,70.00
2023-02-11T07:49:02.164Z,70.41
2023-02-11T07:51:34.277Z,70.38
2023-02-11T07:54:06.361Z,70.65
2023-02-11T07:56:38.242Z,70.84
2023-02-11T07:59:10.166Z,71.01
2023-02-11T08:01:41.956Z,71.50
2023-02-11T08:04:13.528Z,71.59
2023-02-11T08:06:46.403Z,71.71
2023-02-11T08:09:19.516Z,71.81
2023-02-11T08:11:51.330Z,72.24
2023-02-11T08:14:23.025Z,72.48
2023-02-11T08:16:54.990Z,72.63
2023-02-11T08:19:27.805Z,72.95
2023-02-11T08:22:01.739Z,73.16
2023-02-11T08:24:33.505Z,73.16
2023-02-11T08:27:05.337Z,73.04
2023-02-11T08:29:37.087Z,73.30
2023-02-11T08:32:08.790Z,73.28
2023-02-11T08:34:40.654Z,73.59
2023-02-11T08:37:12.511Z,73.64
2023-02-11T08:39:44.269Z,73.27
2023-02-11T08:42:16.144Z,72.99
2023-02-11T08:44:48.255Z,73.96
2023-02-11T08:47:20.061Z,74.61
2023-02-11T08:49:51.765Z,74.91
2023-02-11T08:52:23.612Z,75.10
2023-02-11T08:54:55.235Z,75.12
2023-02-11T08:57:27.106Z,75.04
2023-02-11T08:59:58.889Z,74.90
2023-02-11T09:02:30.875Z,75.32
2023-02-11T09:05:02.677Z,75.57
2023-02-11T09:07:34.472Z,75.72
2023-02-11T09:10:06.719Z,75.52
2023-02-11T09:12:38.547Z,75.27
2023-02-11T09:15:11.636Z,75.38
2023-02-11T09:17:43.542Z,75.57
2023-02-11T09:20:15.953Z,75.71
2023-02-11T09:22:48.147Z,75.68
2023-02-11T09:25:20.264Z,75.94
2023-02-11T09:27:54.132Z,75.87
2023-02-11T09:30:26.595Z,76.13
2023-02-11T09:32:58.345Z,75.81
2023-02-11T09:35:30.126Z,75.46
2023-02-11T09:38:01.854Z,75.27
2023-02-11T09:40:34.060Z,75.18
2023-02-11T09:43:10.006Z,75.01
2023-02-11T09:45:41.947Z,75.05
2023-02-11T09:48:20.160Z,74.92
2023-02-11T09:50:56.150Z,74.64
2023-02-11T09:53:31.163Z,74.69
2023-02-11T09:56:05.379Z,74.75
2023-02-11T09:58:40.137Z,74.92
2023-02-11T10:01:14.953Z,75.02
2023-02-11T10:04:01.335Z,75.21
2023-02-11T10:06:47.510Z,75.29
2023-02-11T10:09:49.312Z,75.32
2023-02-11T10:12:33.278Z,75.30
2023-02-11T10:15:19.558Z,75.52
2023-02-11T10:18:03.559Z,76.01
2023-02-11T10:20:39.336Z,76.40
2023-02-11T10:23:22.080Z,76.17
2023-02-11T10:25:56.687Z,76.02
2023-02-11T10:28:34.307Z,76.20
2023-02-11T10:31:08.788Z,76.56
2023-02-11T10:33:46.363Z,76.58
2023-02-11T10:36:20.353Z,76.22
2023-02-11T10:38:51.991Z,76.07
2023-02-11T10:41:28.011Z,76.07
2023-02-11T10:44:00.701Z,76.24
2023-02-11T10:46:40.551Z,76.23
2023-02-11T10:49:32.744Z,76.46
2023-02-11T10:52:22.639Z,76.78
2023-02-11T10:55:03.748Z,76.98
2023-02-11T10:57:39.032Z,77.09
2023-02-11T11:00:25.442Z,77.31
2023-02-11T11:03:01.053Z,77.32
2023-02-11T11:05:37.118Z,77.08
2023-02-11T11:08:11.251Z,77.00
2023-02-11T11:10:45.354Z,76.86
2023-02-11T11:13:35.913Z,76.86
2023-02-11T11:16:22.487Z,77.39
2023-02-11T11:18:56.276Z,77.70
2023-02-11T11:21:32.636Z,77.70
2023-02-11T11:24:06.518Z,77.23
2023-02-11T11:26:46.727Z,77.16
2023-02-11T11:29:21.328Z,77.65
2023-02-11T11:31:57.230Z,77.90
2023-02-11T11:34:33.907Z,77.94
2023-02-11T11:37:15.304Z,78.10
2023-02-11T11:39:55.672Z,78.04
2023-02-11T11:42:30.845Z,78.13
2023-02-11T11:45:04.993Z,77.74
2023-02-11T11:47:47.052Z,77.92
2023-02-11T11:50:29.674Z,78.11
2023-02-11T11:53:12.045Z,78.18
2023-02-11T11:55:47.424Z,78.22
2023-02-11T11:58:22.773Z,78.13
2023-02-11T12:01:03.844Z,78.12
2023-02-11T12:04:27.999Z,78.13
2023-02-11T12:07:13.813Z,78.25
2023-02-11T12:09:56.199Z,77.95
2023-02-11T12:12:46.841Z,78.12
2023-02-11T12:15:33.435Z,78.38
2023-02-11T12:18:24.107Z,78.27
2023-02-11T12:21:11.957Z,78.29
2023-02-11T12:23:57.442Z,78.43
2023-02-11T12:26:36.848Z,78.41
2023-02-11T12:29:17.392Z,78.42
2023-02-11T12:32:06.251Z,78.40
2023-02-11T12:34:48.658Z,78.75
2023-02-11T12:37:36.970Z,78.57
2023-02-11T12:40:20.225Z,78.77
2023-02-11T12:43:19.142Z,78.74
2023-02-11T12:46:11.801Z,78.72
2023-02-11T12:48:58.783Z,78.75
2023-02-11T12:51:42.275Z,78.91
2023-02-11T12:54:26.508Z,79.08
2023-02-11T12:57:05.134Z,78.82
2023-02-11T12:59:55.737Z,78.93
2023-02-11T13:02:36.742Z,78.75
2023-02-11T13:05:29.055Z,78.54
2023-02-11T13:08:08.070Z,78.44
2023-02-11T13:10:43.354Z,78.72
2023-02-11T13:13:24.216Z,78.57
2023-02-11T13:16:03.745Z,78.26
2023-02-11T13:18:52.094Z,78.31
2023-02-11T13:21:48.174Z,78.13
2023-02-11T13:24:33.710Z,78.40
2023-02-11T13:27:18.282Z,78.38
2023-02-11T13:30:21.690Z,78.13
2023-02-11T13:33:33.827Z,78.09
2023-02-11T13:36:27.068Z,78.30
2023-02-11T13:39:04.197Z,78.32
2023-02-11T13:41:42.244Z,78.21
2023-02-11T13:44:35.562Z,78.46
2023-02-11T13:47:09.633Z,78.44
2023-02-11T13:49:55.494Z,78.96
2023-02-11T13:52:31.346Z,78.78
2023-02-11T13:55:10.930Z,78.73
2023-02-11T13:57:45.898Z,78.45
2023-02-11T14:00:52.472Z,78.63
2023-02-11T14:04:20.278Z,78.44
2023-02-11T14:07:40.251Z,78.26
2023-02-11T14:10:53.661Z,78.84
2023-02-11T14:13:29.390Z,78.59
2023-02-11T14:16:25.268Z,77.98
2023-02-11T14:19:06.656Z,78.17
2023-02-11T14:21:38.390Z,78.02
2023-02-11T14:24:44.100Z,78.29
2023-02-11T14:27:22.353Z,78.32
2023-02-11T14:30:13.744Z,78.15
2023-02-11T14:33:03.258Z,78.18
2023-02-11T14:35:47.456Z,78.88
2023-02-11T14:38:29.096Z,79.08
2023-02-11T14:41:08.601Z,78.62
2023-02-11T14:43:48.370Z,78.55
2023-02-11T14:46:23.233Z,79.20
2023-02-11T14:48:56.357Z,79.25
2023-02-11T14:51:32.045Z,79.19
2023-02-11T14:54:16.577Z,79.08
2023-02-11T14:56:49.858Z,78.97
2023-02-11T14:59:24.217Z,78.70
2023-02-11T15:01:57.362Z,79.17
2023-02-11T15:04:32.731Z,79.60
2023-02-11T15:07:12.914Z,79.69
2023-02-11T15:09:49.043Z,79.64
2023-02-11T15:12:27.204Z,79.82
2023-02-11T15:15:03.320Z,79.92
2023-02-11T15:17:40.006Z,79.73
2023-02-11T15:20:24.563Z,79.90
2023-02-11T15:23:01.960Z,79.84
2023-02-11T15:25:36.765Z,79.45
2023-02-11T15:28:12.693Z,79.58
2023-02-11T15:30:45.684Z,79.22
2023-02-11T15:33:26.890Z,79.33
2023-02-11T15:36:00.944Z,79.75
2023-02-11T15:38:34.767Z,79.67
2023-02-11T15:41:09.040Z,79.36
2023-02-11T15:43:52.185Z,78.92
2023-02-11T15:46:27.010Z,78.80
2023-02-11T15:48:58.133Z,78.75
2023-02-11T15:51:36.233Z,78.70
2023-02-11T15:54:17.413Z,79.41
2023-02-11T15:56:57.328Z,79.70
2023-02-11T15:59:34.432Z,79.60
2023-02-11T16:02:19.020Z,79.72
2023-02-11T16:04:58.404Z,79.65
2023-02-11T16:07:53.271Z,80.08
2023-02-11T16:10:30.627Z,80.61
2023-02-11T16:13:23.136Z,80.63
2023-02-11T16:16:00.025Z,80.49
2023-02-11T16:19:02.000Z,80.73
2023-02-11T16:21:39.721Z,80.91
2023-02-11T16:24:28.874Z,80.87
2023-02-11T16:27:05.111Z,80.96
2023-02-11T16:29:42.857Z,80.74
2023-02-11T16:32:21.709Z,80.30
2023-02-11T16:34:56.034Z,80.01
2023-02-11T16:37:30.726Z,79.86
2023-02-11T16:40:03.642Z,79.93
2023-02-11T16:42:38.501Z,79.42
2023-02-11T16:45:13.589Z,79.37
2023-02-11T16:47:50.911Z,79.33
2023-02-11T16:50:28.176Z,79.11
2023-02-11T16:53:04.159Z,78.91
2023-02-11T16:55:42.884Z,79.09
2023-02-11T16:58:15.501Z,79.14
2023-02-11T17:00:51.438Z,79.30
2023-02-11T17:03:30.190Z,79.31
2023-02-11T17:06:05.497Z,79.33
2023-02-11T17:08:41.421Z,79.24
2023-02-11T17:11:18.942Z,79.64
2023-02-11T17:13:54.093Z,79.59
2023-02-11T17:16:31.217Z,79.65
2023-02-11T17:19:06.900Z,79.59
2023-02-11T17:21:43.764Z,79.49
2023-02-11T17:24:18.958Z,79.38
2023-02-11T17:26:53.444Z,79.37
2023-02-11T17:29:29.980Z,79.36
2023-02-11T17:32:03.965Z,79.65
2023-02-11T17:34:38.495Z,79.76
2023-02-11T17:37:14.698Z,80.16
2023-02-11T17:39:49.389Z,79.89
2023-02-11T17:42:24.190Z,79.91
2023-02-11T17:44:56.042Z,79.96
2023-02-11T17:47:30.942Z,79.74
2023-02-11T17:50:06.040Z,79.76
2023-02-11T17:52:39.007Z,80.09
2023-02-11T17:55:13.968Z,80.38
2023-02-11T17:57:50.331Z,80.18
2023-02-11T18:00:26.936Z,80.20
2023-02-11T18:03:03.807Z,80.18
2023-02-11T18:05:42.736Z,80.38
2023-02-11T18:08:20.438Z,80.33
2023-02-11T18:10:54.303Z,80.22
2023-02-11T18:13:29.333Z,80.19
2023-02-11T18:16:08.417Z,79.80
2023-02-11T18:18:41.450Z,80.02
2023-02-11T18:21:19.106Z,79.90
2023-02-11T18:23:54.695Z,79.73
2023-02-11T18:26:31.705Z,79.97
2023-02-11T18:29:09.425Z,80.05
2023-02-11T18:31:43.958Z,80.18
2023-02-11T18:34:18.700Z,80.38
2023-02-11T18:36:55.176Z,80.27
2023-02-11T18:39:30.039Z,80.61
2023-02-11T18:42:02.920Z,80.58
2023-02-11T18:44:42.803Z,80.54
2023-02-11T18:47:18.817Z,80.96
2023-02-11T18:49:53.901Z,80.98
2023-02-11T18:52:41.025Z,80.33
2023-02-11T18:55:18.325Z,80.25
2023-02-11T18:58:00.628Z,80.61
2023-02-11T19:00:35.639Z,80.66
2023-02-11T19:03:10.259Z,80.51
2023-02-11T19:05:48.352Z,80.35
2023-02-11T19:08:21.896Z,80.55
2023-02-11T19:10:59.703Z,80.18
2023-02-11T19:13:37.621Z,80.28
2023-02-11T19:16:20.431Z,80.20
2023-02-11T19:18:56.532Z,80.52
2023-02-11T19:21:34.455Z,80.64
2023-02-11T19:24:10.598Z,80.77
2023-02-11T19:26:44.740Z,80.53
2023-02-11T19:29:19.893Z,80.27
2023-02-11T19:31:58.247Z,80.41
2023-02-11T19:34:31.299Z,80.59
2023-02-11T19:37:06.272Z,80.53
2023-02-11T19:39:39.856Z,80.64
2023-02-11T19:42:13.250Z,80.79
2023-02-11T19:44:47.183Z,80.75
2023-02-11T19:47:28.690Z,80.71
2023-02-11T19:50:05.491Z,80.95
2023-02-11T19:52:43.953Z,80.76
2023-02-11T19:55:18.593Z,80.56
2023-02-11T19:57:54.288Z,80.99
2023-02-11T20:00:27.930Z,81.11
2023-02-11T20:03:01.295Z,80.76
2023-02-11T20:05:35.952Z,80.76
2023-02-11T20:08:09.884Z,80.65
2023-02-11T20:10:44.924Z,81.01
2023-02-11T20:13:17.575Z,81.33
2023-02-11T20:15:55.185Z,81.23
2023-02-11T20:18:32.030Z,81.28
2023-02-11T20:21:08.164Z,81.29
2023-02-11T20:23:42.881Z,81.37
2023-02-11T20:26:19.076Z,81.38
2023-02-11T20:29:02.941Z,81.27
2023-02-11T20:31:40.141Z,81.20
2023-02-11T20:34:14.210Z,81.26
2023-02-11T20:36:53.106Z,81.10
2023-02-11T20:39:32.485Z,81.03
2023-02-11T20:42:08.122Z,81.12
2023-02-11T20:44:47.606Z,81.13
2023-02-11T20:47:23.645Z,80.92
2023-02-11T20:49:59.177Z,81.07
2023-02-11T20:52:35.253Z,80.61
2023-02-11T20:55:10.669Z,80.56
2023-02-11T20:57:45.782Z,80.76
2023-02-11T21:00:20.383Z,80.93
2023-02-11T21:03:09.109Z,80.97
2023-02-11T21:05:44.845Z,80.46
2023-02-11T21:08:18.919Z,79.85
2023-02-11T21:10:53.699Z,80.30
2023-02-11T21:13:30.851Z,80.43
2023-02-11T21:16:06.575Z,80.08
2023-02-11T21:18:46.214Z,81.02
2023-02-11T21:21:23.311Z,81.42
2023-02-11T21:23:59.103Z,81.10
2023-02-11T21:26:34.426Z,81.22
2023-02-11T21:29:09.256Z,81.36
2023-02-11T21:31:41.539Z,81.58
2023-02-11T21:34:18.006Z,81.90
2023-02-11T21:36:51.776Z,81.24
2023-02-11T21:39:26.205Z,80.82
2023-02-11T21:42:01.465Z,80.87
2023-02-11T21:44:38.203Z,81.16
2023-02-11T21:47:11.952Z,81.49
2023-02-11T21:49:49.095Z,81.63
2023-02-11T21:52:22.792Z,81.36
2023-02-11T21:54:56.965Z,81.49
2023-02-11T21:57:29.761Z,81.08
2023-02-11T22:00:03.661Z,81.15
2023-02-11T22:02:37.397Z,81.42
2023-02-11T22:05:10.815Z,81.43
2023-02-11T22:07:44.070Z,81.49
2023-02-11T22:10:16.953Z,81.52
2023-02-11T22:12:49.094Z,81.34
2023-02-11T22:15:21.552Z,81.25
2023-02-11T22:17:53.300Z,81.61
2023-02-11T22:20:25.742Z,81.40
2023-02-11T22:22:57.572Z,81.74
2023-02-11T22:25:29.979Z,81.18
2023-02-11T22:28:01.861Z,81.12
2023-02-11T22:30:33.718Z,81.16
2023-02-11T22:33:06.007Z,81.30
2023-02-11T22:35:37.921Z,81.36
2023-02-11T22:38:09.613Z,80.66
2023-02-11T22:40:46.012Z,80.88
2023-02-11T22:43:17.749Z,81.02
2023-02-11T22:45:49.609Z,80.40
2023-02-11T22:48:23.124Z,80.41
2023-02-11T22:50:54.819Z,79.55
2023-02-11T22:53:26.698Z,78.75
2023-02-11T22:55:59.101Z,78.37
2023-02-11T22:58:30.787Z,78.40
2023-02-11T23:01:02.969Z,77.86
2023-02-11T23:03:35.294Z,77.32
2023-02-11T23:06:07.365Z,76.99
2023-02-11T23:08:39.572Z,76.83
2023-02-11T23:11:13.441Z,76.51
2023-02-11T23:13:46.690Z,76.54
2023-02-11T23:16:20.805Z,76.89
2023-02-11T23:18:53.219Z,76.07
2023-02-11T23:21:27.432Z,75.25
2023-02-11T23:24:00.783Z,75.11
2023-02-11T23:26:32.662Z,74.63
2023-02-11T23:29:04.370Z,73.97
2023-02-11T23:31:40.155Z,74.34
2023-02-11T23:34:12.097Z,74.11
2023-02-11T23:36:43.940Z,74.16
2023-02-11T23:39:17.787Z,74.47
2023-02-11T23:41:49.785Z,73.95
2023-02-11T23:44:21.406Z,73.22
2023-02-11T23:46:53.243Z,72.97
2023-02-11T23:49:25.028Z,73.08
2023-02-11T23:51:56.864Z,73.14
2023-02-11T23:54:28.565Z,72.62
2023-02-11T23:57:00.262Z,72.26
2023-02-11T23:59:31.907Z,72.24
